CEB897 RPLL-RPVM
Flight info
| Callsign | CEB897 |
|---|---|
| Flight time | 0h 56m |
| Altitude | 37000 |
| Route | IPATA2R IPATA W25 BATAY BATAY3P |
| Aircraft | A20N/M-SDE2E3FGHIRWXY/LB1 |
Departure
| Time | 2026-05-08 04:13 |
|---|---|
| Airport | Ninoy Aquino International Airport (RPLL) |
Arrival
| Time | 2026-05-08 05:09 |
|---|---|
| Airport | Mactan Cebu International Airport (RPVM) |
| Time | Latitude | Longitude | Altitude | Speed | Heading |
|---|---|---|---|---|---|
| 2026-05-08 03:58 | 14.50887 | 121.01365 | 48 ft | 0 kts | 330° |
| 2026-05-08 04:05 | 14.50884 | 121.01367 | 47 ft | 1 kts | 330° |
| 2026-05-08 04:05 | 14.50877 | 121.01371 | 47 ft | 1 kts | 330° |
| 2026-05-08 04:05 | 14.50870 | 121.01375 | 47 ft | 1 kts | 330° |
| 2026-05-08 04:05 | 14.50863 | 121.01379 | 46 ft | 1 kts | 330° |
| 2026-05-08 04:06 | 14.50857 | 121.01382 | 48 ft | 1 kts | 330° |
| 2026-05-08 04:06 | 14.50850 | 121.01386 | 72 ft | 1 kts | 330° |
| 2026-05-08 04:06 | 14.50843 | 121.01390 | 63 ft | 1 kts | 323° |
| 2026-05-08 04:06 | 14.50837 | 121.01395 | 44 ft | 1 kts | 317° |
| 2026-05-08 04:07 | 14.50832 | 121.01401 | 50 ft | 1 kts | 311° |
| 2026-05-08 04:07 | 14.50827 | 121.01407 | 50 ft | 1 kts | 304° |
| 2026-05-08 04:07 | 14.50822 | 121.01413 | 50 ft | 1 kts | 298° |
| 2026-05-08 04:07 | 14.50819 | 121.01420 | 46 ft | 1 kts | 267° |
| 2026-05-08 04:08 | 14.50819 | 121.01427 | 47 ft | 0 kts | 230° |
| 2026-05-08 04:08 | 14.50816 | 121.01424 | 46 ft | 3 kts | 231° |
| 2026-05-08 04:08 | 14.50793 | 121.01395 | 49 ft | 8 kts | 231° |
| 2026-05-08 04:09 | 14.50756 | 121.01337 | 48 ft | 12 kts | 239° |
| 2026-05-08 04:09 | 14.50709 | 121.01254 | 47 ft | 15 kts | 240° |
| 2026-05-08 04:09 | 14.50648 | 121.01152 | 46 ft | 18 kts | 219° |
| 2026-05-08 04:09 | 14.50541 | 121.01093 | 44 ft | 19 kts | 238° |
| 2026-05-08 04:10 | 14.50471 | 121.00971 | 44 ft | 21 kts | 239° |
| 2026-05-08 04:10 | 14.50391 | 121.00830 | 42 ft | 24 kts | 242° |
| 2026-05-08 04:10 | 14.50305 | 121.00671 | 40 ft | 26 kts | 240° |
| 2026-05-08 04:10 | 14.50206 | 121.00501 | 38 ft | 29 kts | 238° |
| 2026-05-08 04:11 | 14.50106 | 121.00318 | 37 ft | 30 kts | 242° |
| 2026-05-08 04:11 | 14.50002 | 121.00129 | 36 ft | 31 kts | 239° |
| 2026-05-08 04:11 | 14.49942 | 121.00020 | 35 ft | 1 kts | 239° |
| 2026-05-08 04:11 | 14.49932 | 121.00003 | 35 ft | 5 kts | 239° |
| 2026-05-08 04:12 | 14.49899 | 120.99970 | 35 ft | 8 kts | 203° |
| 2026-05-08 04:12 | 14.49841 | 120.99987 | 35 ft | 10 kts | 154° |
| 2026-05-08 04:12 | 14.49800 | 121.00041 | 35 ft | 9 kts | 71° |
| 2026-05-08 04:12 | 14.49807 | 121.00052 | 33 ft | 4 kts | 61° |
| 2026-05-08 04:13 | 14.49945 | 121.00303 | 35 ft | 76 kts | 60° |
| 2026-05-08 04:13 | 14.50308 | 121.00961 | 43 ft | 132 kts | 60° |
| 2026-05-08 04:13 | 14.50828 | 121.01889 | 212 ft | 159 kts | 62° |
| 2026-05-08 04:13 | 14.51392 | 121.02829 | 889 ft | 152 kts | 60° |
| 2026-05-08 04:14 | 14.51930 | 121.03780 | 1517 ft | 155 kts | 62° |
| 2026-05-08 04:14 | 14.52465 | 121.04777 | 2012 ft | 166 kts | 62° |
| 2026-05-08 04:14 | 14.53050 | 121.05877 | 2432 ft | 182 kts | 65° |
| 2026-05-08 04:14 | 14.53254 | 121.07212 | 2731 ft | 201 kts | 101° |
| 2026-05-08 04:15 | 14.52615 | 121.08570 | 3014 ft | 224 kts | 128° |
| 2026-05-08 04:15 | 14.51457 | 121.09775 | 3435 ft | 248 kts | 136° |
| 2026-05-08 04:15 | 14.50139 | 121.10989 | 4019 ft | 263 kts | 136° |
| 2026-05-08 04:15 | 14.48802 | 121.12281 | 4943 ft | 264 kts | 134° |
| 2026-05-08 04:16 | 14.47494 | 121.13633 | 5860 ft | 267 kts | 132° |
| 2026-05-08 04:16 | 14.46188 | 121.15045 | 6143 ft | 272 kts | 131° |
| 2026-05-08 04:16 | 14.44901 | 121.16473 | 6260 ft | 271 kts | 130° |
| 2026-05-08 04:16 | 14.43616 | 121.17913 | 6586 ft | 275 kts | 130° |
| 2026-05-08 04:17 | 14.42315 | 121.19374 | 7398 ft | 275 kts | 130° |
| 2026-05-08 04:17 | 14.41009 | 121.20836 | 8234 ft | 279 kts | 130° |
| 2026-05-08 04:17 | 14.39678 | 121.22325 | 9012 ft | 284 kts | 131° |
| 2026-05-08 04:17 | 14.38340 | 121.23819 | 9805 ft | 287 kts | 130° |
| 2026-05-08 04:18 | 14.36984 | 121.25324 | 10602 ft | 291 kts | 130° |
| 2026-05-08 04:18 | 14.35554 | 121.26925 | 10849 ft | 314 kts | 130° |
| 2026-05-08 04:18 | 14.34019 | 121.28645 | 11057 ft | 337 kts | 130° |
| 2026-05-08 04:18 | 14.32408 | 121.30442 | 11625 ft | 344 kts | 130° |
| 2026-05-08 04:19 | 14.30766 | 121.32269 | 12292 ft | 348 kts | 130° |
| 2026-05-08 04:19 | 14.29107 | 121.34114 | 12961 ft | 353 kts | 130° |
| 2026-05-08 04:19 | 14.27424 | 121.35988 | 13509 ft | 357 kts | 130° |
| 2026-05-08 04:19 | 14.25754 | 121.37847 | 13913 ft | 359 kts | 131° |
| 2026-05-08 04:20 | 14.24051 | 121.39744 | 14233 ft | 360 kts | 130° |
| 2026-05-08 04:20 | 14.22348 | 121.41638 | 14474 ft | 361 kts | 131° |
| 2026-05-08 04:20 | 14.20638 | 121.43541 | 14703 ft | 359 kts | 130° |
| 2026-05-08 04:20 | 14.18923 | 121.45449 | 14935 ft | 364 kts | 131° |
| 2026-05-08 04:21 | 14.17225 | 121.47338 | 15161 ft | 365 kts | 131° |
| 2026-05-08 04:21 | 14.15497 | 121.49261 | 15393 ft | 365 kts | 131° |
| 2026-05-08 04:21 | 14.13773 | 121.51179 | 15637 ft | 365 kts | 131° |
| 2026-05-08 04:21 | 14.12038 | 121.53103 | 15864 ft | 366 kts | 130° |
| 2026-05-08 04:22 | 14.10312 | 121.55017 | 16095 ft | 366 kts | 130° |
| 2026-05-08 04:22 | 14.08571 | 121.56956 | 16341 ft | 369 kts | 130° |
| 2026-05-08 04:22 | 14.06820 | 121.58907 | 16585 ft | 374 kts | 131° |
| 2026-05-08 04:22 | 14.05056 | 121.60862 | 16830 ft | 370 kts | 130° |
| 2026-05-08 04:23 | 14.03296 | 121.62812 | 17077 ft | 372 kts | 130° |
| 2026-05-08 04:23 | 14.01534 | 121.64768 | 17324 ft | 374 kts | 131° |
| 2026-05-08 04:23 | 13.99749 | 121.66751 | 17579 ft | 378 kts | 131° |
| 2026-05-08 04:23 | 13.97960 | 121.68736 | 17830 ft | 379 kts | 131° |
| 2026-05-08 04:24 | 13.96158 | 121.70734 | 18085 ft | 380 kts | 131° |
| 2026-05-08 04:24 | 13.94356 | 121.72729 | 18319 ft | 381 kts | 131° |
| 2026-05-08 04:24 | 13.92549 | 121.74731 | 18534 ft | 382 kts | 131° |
| 2026-05-08 04:24 | 13.90733 | 121.76743 | 18759 ft | 385 kts | 131° |
| 2026-05-08 04:25 | 13.88906 | 121.78768 | 18987 ft | 386 kts | 131° |
| 2026-05-08 04:25 | 13.87072 | 121.80747 | 19198 ft | 388 kts | 135° |
| 2026-05-08 04:25 | 13.85001 | 121.82550 | 19418 ft | 391 kts | 142° |
| 2026-05-08 04:25 | 13.82795 | 121.84200 | 19655 ft | 393 kts | 142° |
| 2026-05-08 04:26 | 13.80581 | 121.85865 | 19882 ft | 395 kts | 142° |
| 2026-05-08 04:26 | 13.78359 | 121.87543 | 20115 ft | 396 kts | 142° |
| 2026-05-08 04:26 | 13.76131 | 121.89226 | 20349 ft | 398 kts | 142° |
| 2026-05-08 04:26 | 13.73891 | 121.90918 | 20585 ft | 400 kts | 142° |
| 2026-05-08 04:27 | 13.71645 | 121.92612 | 20822 ft | 401 kts | 142° |
| 2026-05-08 04:27 | 13.69418 | 121.94292 | 21063 ft | 403 kts | 142° |
| 2026-05-08 04:27 | 13.67150 | 121.96002 | 21298 ft | 404 kts | 142° |
| 2026-05-08 04:27 | 13.64878 | 121.97713 | 21545 ft | 405 kts | 142° |
| 2026-05-08 04:28 | 13.62602 | 121.99428 | 21785 ft | 407 kts | 142° |
| 2026-05-08 04:28 | 13.60308 | 122.01158 | 22036 ft | 409 kts | 142° |
| 2026-05-08 04:28 | 13.58001 | 122.02897 | 22286 ft | 412 kts | 143° |
| 2026-05-08 04:28 | 13.55677 | 122.04648 | 22540 ft | 414 kts | 143° |
| 2026-05-08 04:29 | 13.53348 | 122.06400 | 22794 ft | 415 kts | 142° |
| 2026-05-08 04:29 | 13.51013 | 122.08158 | 23054 ft | 418 kts | 143° |
| 2026-05-08 04:29 | 13.48661 | 122.09926 | 23313 ft | 420 kts | 142° |
| 2026-05-08 04:29 | 13.46293 | 122.11707 | 23555 ft | 422 kts | 143° |
| 2026-05-08 04:30 | 13.43947 | 122.13472 | 23768 ft | 423 kts | 143° |
| 2026-05-08 04:30 | 13.41572 | 122.15259 | 23990 ft | 424 kts | 143° |
| 2026-05-08 04:30 | 13.39184 | 122.17055 | 24203 ft | 425 kts | 143° |
| 2026-05-08 04:30 | 13.36792 | 122.18852 | 24420 ft | 426 kts | 143° |
| 2026-05-08 04:31 | 13.34390 | 122.20658 | 24648 ft | 428 kts | 143° |
| 2026-05-08 04:31 | 13.31984 | 122.22464 | 24874 ft | 428 kts | 143° |
| 2026-05-08 04:31 | 13.29575 | 122.24273 | 25097 ft | 430 kts | 143° |
| 2026-05-08 04:31 | 13.27152 | 122.26092 | 25327 ft | 432 kts | 143° |
| 2026-05-08 04:32 | 13.24722 | 122.27916 | 25556 ft | 433 kts | 143° |
| 2026-05-08 04:32 | 13.22281 | 122.29749 | 25783 ft | 435 kts | 143° |
| 2026-05-08 04:32 | 13.19857 | 122.31567 | 26014 ft | 436 kts | 143° |
| 2026-05-08 04:32 | 13.17405 | 122.33406 | 26262 ft | 437 kts | 144° |
| 2026-05-08 04:33 | 13.14945 | 122.35251 | 26492 ft | 438 kts | 144° |
| 2026-05-08 04:33 | 13.12488 | 122.37093 | 26730 ft | 437 kts | 144° |
| 2026-05-08 04:33 | 13.10030 | 122.38936 | 26971 ft | 439 kts | 144° |
| 2026-05-08 04:33 | 13.07552 | 122.40792 | 27212 ft | 441 kts | 144° |
| 2026-05-08 04:34 | 13.05072 | 122.42651 | 27458 ft | 444 kts | 144° |
| 2026-05-08 04:34 | 13.02566 | 122.44528 | 27706 ft | 445 kts | 144° |
| 2026-05-08 04:34 | 13.00063 | 122.46403 | 27955 ft | 445 kts | 144° |
| 2026-05-08 04:34 | 12.97554 | 122.48281 | 28208 ft | 448 kts | 144° |
| 2026-05-08 04:35 | 12.95034 | 122.50168 | 28457 ft | 449 kts | 144° |
| 2026-05-08 04:35 | 12.92539 | 122.52033 | 28713 ft | 452 kts | 144° |
| 2026-05-08 04:35 | 12.89992 | 122.53938 | 28975 ft | 453 kts | 144° |
| 2026-05-08 04:35 | 12.87438 | 122.55847 | 29237 ft | 455 kts | 144° |
| 2026-05-08 04:36 | 12.84866 | 122.57769 | 29504 ft | 457 kts | 145° |
| 2026-05-08 04:36 | 12.82286 | 122.59697 | 29769 ft | 459 kts | 145° |
| 2026-05-08 04:36 | 12.79693 | 122.61634 | 30024 ft | 461 kts | 145° |
| 2026-05-08 04:36 | 12.77102 | 122.63570 | 30243 ft | 461 kts | 145° |
| 2026-05-08 04:37 | 12.74506 | 122.65510 | 30467 ft | 463 kts | 145° |
| 2026-05-08 04:37 | 12.71925 | 122.67436 | 30694 ft | 465 kts | 145° |
| 2026-05-08 04:37 | 12.69298 | 122.69396 | 30925 ft | 468 kts | 145° |
| 2026-05-08 04:37 | 12.66666 | 122.71360 | 31157 ft | 469 kts | 145° |
| 2026-05-08 04:38 | 12.64031 | 122.73325 | 31390 ft | 469 kts | 145° |
| 2026-05-08 04:38 | 12.61392 | 122.75293 | 31628 ft | 469 kts | 145° |
| 2026-05-08 04:38 | 12.58756 | 122.77259 | 31862 ft | 469 kts | 146° |
| 2026-05-08 04:38 | 12.56115 | 122.79227 | 32105 ft | 469 kts | 146° |
| 2026-05-08 04:39 | 12.53473 | 122.81196 | 32351 ft | 469 kts | 146° |
| 2026-05-08 04:39 | 12.50831 | 122.83164 | 32593 ft | 470 kts | 146° |
| 2026-05-08 04:39 | 12.48181 | 122.85137 | 32838 ft | 470 kts | 146° |
| 2026-05-08 04:39 | 12.45539 | 122.87105 | 33087 ft | 470 kts | 146° |
| 2026-05-08 04:40 | 12.42923 | 122.89053 | 33333 ft | 470 kts | 146° |
| 2026-05-08 04:40 | 12.40277 | 122.91022 | 33584 ft | 469 kts | 146° |
| 2026-05-08 04:40 | 12.37630 | 122.92991 | 33842 ft | 469 kts | 146° |
| 2026-05-08 04:40 | 12.34987 | 122.94957 | 34069 ft | 469 kts | 146° |
| 2026-05-08 04:41 | 12.32347 | 122.96921 | 34290 ft | 469 kts | 146° |
| 2026-05-08 04:41 | 12.29710 | 122.98881 | 34512 ft | 468 kts | 146° |
| 2026-05-08 04:41 | 12.27074 | 123.00840 | 34739 ft | 467 kts | 146° |
| 2026-05-08 04:41 | 12.24475 | 123.02771 | 34968 ft | 467 kts | 146° |
| 2026-05-08 04:42 | 12.21842 | 123.04727 | 35196 ft | 466 kts | 146° |
| 2026-05-08 04:42 | 12.19209 | 123.06683 | 35428 ft | 466 kts | 146° |
| 2026-05-08 04:42 | 12.16588 | 123.08629 | 35662 ft | 465 kts | 146° |
| 2026-05-08 04:42 | 12.13971 | 123.10572 | 35899 ft | 464 kts | 146° |
| 2026-05-08 04:43 | 12.11360 | 123.12509 | 36138 ft | 463 kts | 147° |
| 2026-05-08 04:43 | 12.08755 | 123.14443 | 36380 ft | 462 kts | 147° |
| 2026-05-08 04:43 | 12.06187 | 123.16347 | 36616 ft | 461 kts | 147° |
| 2026-05-08 04:43 | 12.03587 | 123.18276 | 36805 ft | 462 kts | 147° |
| 2026-05-08 04:44 | 11.98365 | 123.22146 | 36496 ft | 462 kts | 147° |
| 2026-05-08 04:44 | 11.95773 | 123.24067 | 36253 ft | 461 kts | 147° |
| 2026-05-08 04:44 | 11.93170 | 123.25994 | 36014 ft | 463 kts | 146° |
| 2026-05-08 04:45 | 11.90557 | 123.27929 | 35772 ft | 464 kts | 146° |
| 2026-05-08 04:45 | 11.87943 | 123.29865 | 35537 ft | 465 kts | 146° |
| 2026-05-08 04:45 | 11.85356 | 123.31781 | 35307 ft | 465 kts | 146° |
| 2026-05-08 04:45 | 11.82734 | 123.33721 | 35081 ft | 466 kts | 146° |
| 2026-05-08 04:46 | 11.80107 | 123.35665 | 34853 ft | 466 kts | 146° |
| 2026-05-08 04:46 | 11.77474 | 123.37612 | 34626 ft | 467 kts | 146° |
| 2026-05-08 04:46 | 11.74839 | 123.39561 | 34400 ft | 468 kts | 146° |
| 2026-05-08 04:46 | 11.72191 | 123.41518 | 34173 ft | 469 kts | 146° |
| 2026-05-08 04:47 | 11.69549 | 123.43471 | 33953 ft | 470 kts | 146° |
| 2026-05-08 04:47 | 11.66903 | 123.45426 | 33717 ft | 470 kts | 146° |
| 2026-05-08 04:47 | 11.64249 | 123.47386 | 33456 ft | 470 kts | 146° |
| 2026-05-08 04:47 | 11.61633 | 123.49319 | 33201 ft | 470 kts | 146° |
| 2026-05-08 04:48 | 11.58984 | 123.51275 | 32955 ft | 471 kts | 146° |
| 2026-05-08 04:48 | 11.56333 | 123.53232 | 32707 ft | 470 kts | 146° |
| 2026-05-08 04:48 | 11.53674 | 123.55194 | 32456 ft | 470 kts | 146° |
| 2026-05-08 04:48 | 11.51027 | 123.57147 | 32212 ft | 470 kts | 145° |
| 2026-05-08 04:49 | 11.48383 | 123.59098 | 31980 ft | 470 kts | 145° |
| 2026-05-08 04:49 | 11.45731 | 123.61053 | 31735 ft | 469 kts | 145° |
| 2026-05-08 04:49 | 11.43075 | 123.63012 | 31497 ft | 469 kts | 146° |
| 2026-05-08 04:49 | 11.40429 | 123.64963 | 31264 ft | 469 kts | 145° |
| 2026-05-08 04:50 | 11.38684 | 123.66250 | 31108 ft | 468 kts | 145° |
| 2026-05-08 04:50 | 11.35183 | 123.68829 | 30748 ft | 467 kts | 145° |
| 2026-05-08 04:50 | 11.32551 | 123.70766 | 29939 ft | 466 kts | 144° |
| 2026-05-08 04:50 | 11.29918 | 123.72704 | 29094 ft | 465 kts | 144° |
| 2026-05-08 04:51 | 11.28182 | 123.73982 | 28612 ft | 463 kts | 144° |
| 2026-05-08 04:51 | 11.25568 | 123.75906 | 27839 ft | 462 kts | 144° |
| 2026-05-08 04:51 | 11.22967 | 123.77820 | 27010 ft | 462 kts | 144° |
| 2026-05-08 04:51 | 11.20368 | 123.79733 | 26282 ft | 459 kts | 144° |
| 2026-05-08 04:52 | 11.17750 | 123.81604 | 25495 ft | 459 kts | 148° |
| 2026-05-08 04:52 | 11.14876 | 123.82991 | 24866 ft | 455 kts | 160° |
| 2026-05-08 04:52 | 11.11852 | 123.83733 | 24046 ft | 451 kts | 172° |
| 2026-05-08 04:52 | 11.08730 | 123.83807 | 23109 ft | 448 kts | 185° |
| 2026-05-08 04:53 | 11.05718 | 123.83164 | 22394 ft | 437 kts | 197° |
| 2026-05-08 04:53 | 11.02894 | 123.82097 | 21642 ft | 428 kts | 200° |
| 2026-05-08 04:53 | 11.00138 | 123.81018 | 20889 ft | 419 kts | 198° |
| 2026-05-08 04:53 | 10.97402 | 123.80051 | 20120 ft | 413 kts | 196° |
| 2026-05-08 04:54 | 10.94688 | 123.79192 | 19384 ft | 406 kts | 194° |
| 2026-05-08 04:54 | 10.91993 | 123.78402 | 18653 ft | 400 kts | 193° |
| 2026-05-08 04:54 | 10.89320 | 123.77647 | 17889 ft | 399 kts | 193° |
| 2026-05-08 04:54 | 10.86662 | 123.76909 | 17195 ft | 390 kts | 193° |
| 2026-05-08 04:55 | 10.84070 | 123.76190 | 16494 ft | 383 kts | 193° |
| 2026-05-08 04:55 | 10.81541 | 123.75488 | 15805 ft | 378 kts | 193° |
| 2026-05-08 04:55 | 10.79012 | 123.74785 | 15103 ft | 373 kts | 193° |
| 2026-05-08 04:55 | 10.76519 | 123.74092 | 14411 ft | 369 kts | 193° |
| 2026-05-08 04:56 | 10.74057 | 123.73407 | 13738 ft | 365 kts | 193° |
| 2026-05-08 04:56 | 10.71621 | 123.72730 | 13053 ft | 359 kts | 193° |
| 2026-05-08 04:56 | 10.69237 | 123.72066 | 12432 ft | 352 kts | 193° |
| 2026-05-08 04:56 | 10.66904 | 123.71416 | 11861 ft | 345 kts | 193° |
| 2026-05-08 04:57 | 10.64591 | 123.70772 | 11124 ft | 344 kts | 193° |
| 2026-05-08 04:57 | 10.62301 | 123.70134 | 10549 ft | 337 kts | 193° |
| 2026-05-08 04:57 | 10.60075 | 123.69514 | 10022 ft | 330 kts | 193° |
| 2026-05-08 04:57 | 10.57918 | 123.68911 | 9850 ft | 311 kts | 193° |
| 2026-05-08 04:58 | 10.55860 | 123.68336 | 9385 ft | 304 kts | 192° |
| 2026-05-08 04:58 | 10.53853 | 123.67778 | 9053 ft | 292 kts | 192° |
| 2026-05-08 04:58 | 10.51875 | 123.67230 | 8930 ft | 299 kts | 192° |
| 2026-05-08 04:58 | 10.49850 | 123.66670 | 8660 ft | 304 kts | 192° |
| 2026-05-08 04:59 | 10.47809 | 123.66104 | 8203 ft | 303 kts | 192° |
| 2026-05-08 04:59 | 10.45781 | 123.65540 | 7742 ft | 299 kts | 192° |
| 2026-05-08 04:59 | 10.43794 | 123.64985 | 7291 ft | 293 kts | 192° |
| 2026-05-08 04:59 | 10.41877 | 123.64451 | 6852 ft | 287 kts | 192° |
| 2026-05-08 05:00 | 10.39965 | 123.63918 | 6417 ft | 281 kts | 192° |
| 2026-05-08 05:00 | 10.38093 | 123.63401 | 5974 ft | 276 kts | 191° |
| 2026-05-08 05:00 | 10.36247 | 123.63298 | 5563 ft | 260 kts | 165° |
| 2026-05-08 05:00 | 10.34633 | 123.63983 | 5117 ft | 248 kts | 140° |
| 2026-05-08 05:01 | 10.33513 | 123.65246 | 4774 ft | 235 kts | 116° |
| 2026-05-08 05:01 | 10.32871 | 123.66834 | 4391 ft | 260 kts | 109° |
| 2026-05-08 05:01 | 10.32225 | 123.68596 | 4174 ft | 263 kts | 109° |
| 2026-05-08 05:01 | 10.31581 | 123.70305 | 4018 ft | 255 kts | 109° |
| 2026-05-08 05:02 | 10.30958 | 123.71946 | 3963 ft | 239 kts | 109° |
| 2026-05-08 05:02 | 10.30383 | 123.73463 | 3836 ft | 222 kts | 109° |
| 2026-05-08 05:02 | 10.29851 | 123.74873 | 3669 ft | 206 kts | 109° |
| 2026-05-08 05:02 | 10.29359 | 123.76181 | 3603 ft | 188 kts | 108° |
| 2026-05-08 05:03 | 10.28923 | 123.77321 | 3484 ft | 165 kts | 108° |
| 2026-05-08 05:03 | 10.28528 | 123.78369 | 3374 ft | 154 kts | 109° |
| 2026-05-08 05:03 | 10.28161 | 123.79344 | 3299 ft | 139 kts | 108° |
| 2026-05-08 05:03 | 10.27835 | 123.80218 | 3019 ft | 127 kts | 107° |
| 2026-05-08 05:04 | 10.27526 | 123.81056 | 2739 ft | 122 kts | 108° |
| 2026-05-08 05:04 | 10.27228 | 123.81862 | 2498 ft | 123 kts | 109° |
| 2026-05-08 05:04 | 10.26927 | 123.82665 | 2412 ft | 121 kts | 108° |
| 2026-05-08 05:04 | 10.26621 | 123.83461 | 2203 ft | 125 kts | 107° |
| 2026-05-08 05:05 | 10.26308 | 123.84281 | 2005 ft | 124 kts | 107° |
| 2026-05-08 05:05 | 10.25996 | 123.85093 | 1813 ft | 123 kts | 107° |
| 2026-05-08 05:05 | 10.25694 | 123.85897 | 1659 ft | 120 kts | 109° |
| 2026-05-08 05:05 | 10.25401 | 123.86681 | 1509 ft | 121 kts | 108° |
| 2026-05-08 05:06 | 10.25097 | 123.87490 | 1154 ft | 126 kts | 108° |
| 2026-05-08 05:06 | 10.24783 | 123.88322 | 954 ft | 126 kts | 108° |
| 2026-05-08 05:06 | 10.24479 | 123.89109 | 916 ft | 112 kts | 108° |
| 2026-05-08 05:06 | 10.24187 | 123.89891 | 978 ft | 119 kts | 100° |
| 2026-05-08 05:07 | 10.24381 | 123.90672 | 1068 ft | 127 kts | 51° |
| 2026-05-08 05:07 | 10.24999 | 123.91339 | 1242 ft | 132 kts | 53° |
| 2026-05-08 05:07 | 10.25364 | 123.92142 | 1248 ft | 120 kts | 74° |
| 2026-05-08 05:07 | 10.25853 | 123.92829 | 1096 ft | 125 kts | 43° |
| 2026-05-08 05:08 | 10.26547 | 123.93412 | 1074 ft | 134 kts | 46° |
| 2026-05-08 05:08 | 10.27225 | 123.94025 | 1054 ft | 126 kts | 47° |
| 2026-05-08 05:08 | 10.27805 | 123.94650 | 999 ft | 122 kts | 56° |
| 2026-05-08 05:08 | 10.28301 | 123.95373 | 739 ft | 126 kts | 57° |
| 2026-05-08 05:09 | 10.28903 | 123.96057 | 406 ft | 131 kts | 46° |
| 2026-05-08 05:09 | 10.29539 | 123.96709 | 149 ft | 128 kts | 46° |
| 2026-05-08 05:09 | 10.30135 | 123.97320 | 33 ft | 111 kts | 45° |
| 2026-05-08 05:09 | 10.30376 | 123.97564 | 36 ft | 0 kts | 45° |
| 2026-05-08 05:11 | 10.30401 | 123.97589 | 36 ft | 13 kts | 45° |
| 2026-05-08 05:11 | 10.30497 | 123.97682 | 34 ft | 22 kts | 36° |
| 2026-05-08 05:11 | 10.30626 | 123.97800 | 35 ft | 27 kts | 45° |
| 2026-05-08 05:12 | 10.30766 | 123.97837 | 36 ft | 11 kts | 313° |
| 2026-05-08 05:12 | 10.30818 | 123.97763 | 37 ft | 17 kts | 318° |
| 2026-05-08 05:12 | 10.30882 | 123.97710 | 37 ft | 8 kts | 338° |
| 2026-05-08 05:12 | 10.30949 | 123.97703 | 37 ft | 7 kts | 44° |
| 2026-05-08 05:13 | 10.30981 | 123.97761 | 37 ft | 13 kts | 54° |
| 2026-05-08 05:13 | 10.31058 | 123.97847 | 38 ft | 19 kts | 48° |
| 2026-05-08 05:13 | 10.31169 | 123.97956 | 38 ft | 25 kts | 43° |
| 2026-05-08 05:13 | 10.31250 | 123.98033 | 39 ft | 1 kts | 43° |
| 2026-05-08 05:14 | 10.31267 | 123.98050 | 38 ft | 5 kts | 43° |
| 2026-05-08 05:14 | 10.31300 | 123.98081 | 39 ft | 8 kts | 43° |
| 2026-05-08 05:14 | 10.31343 | 123.98122 | 39 ft | 10 kts | 43° |
| 2026-05-08 05:14 | 10.31407 | 123.98135 | 38 ft | 10 kts | 346° |
| 2026-05-08 05:15 | 10.31464 | 123.98086 | 37 ft | 12 kts | 313° |
| 2026-05-08 05:15 | 10.31519 | 123.98013 | 39 ft | 14 kts | 306° |
| 2026-05-08 05:15 | 10.31543 | 123.97987 | 39 ft | 2 kts | 313° |
| 2026-05-08 05:15 | 10.31551 | 123.97978 | 39 ft | 0 kts | 313° |